Aérodrome :
LOGIN :

S'inscrire | Disclaimer

   EN    FR    IT 

 










Légende :    VFR   VFR Marginal   IFR   IFR Intensif   IFR Très Intensif
Visi : 
Plafond : 
>= 8 km
>= 3000ft
5 à 8 km
1000 à 3000 ft
1500m à 5 km
500 à 1000 ft
800 à 1500m
200 à 500 ft
< 800m
< 200 ft
Symboles :   Orages  Brouillard  Fortes neiges  Fortes précipitations  Vent > 20 kt
SIGMETs :   Divers  Orages  Givrage  Turbulence  Onde Orograph.  Cendres Volcan.







- Altitude de l'aérodrome : 202 ft
- Code IATA : LGW
- Voir les cartes d'approche


EGKK - London Gatwick

DERNIER METAR :
  • 200920Z 06004KT 9999 BKN018 03/M00 Q1016

METARs EXPIRÉS :
  • 200850Z 03006KT 9999 BKN018 02/M01 Q1016
  • 200820Z 03005KT 360V070 9999 BKN018 02/M01 Q1015
  • 200750Z 02004KT 320V080 9999 BKN018 02/M01 Q1015
  • 200720Z 01004KT 340V080 9999 BKN018 01/M00 Q1014
  • 200650Z 02004KT 310V050 9999 BKN018 01/M01 Q1014

TAF TAF EGKK
Valide du 20 à 06h jusqu'au 21 à 12h UTC


200500Z 2006/2112 04005KT 9999 BKN016
TEMPO 2006/2011 BKN013
PROB30 2006/2009 8000
PROB30 2018/2021 6000
PROB30 2021/2111 3000 BR
PROB30
TEMPO 2105/2112 BKN010
Pas de NOTAMs connus pour ce terrain.



MET'MAP, la Météo Aéronautique d'un coup d'oeil ! - Copyright ORBIFLY Décembre 2007 - Disclaimer

ORBIFLY MET'MAP TEAM :

Programmation & Développement : Alexandra Zaïnal
Conception & Développement : Baudouin d'Aumeries
Co-Programmation & Développement : Marc-Olivier Méhu
Soutien technique & logistique : Manuel Goepfert

Contact : metmap@orbifly.com




SOURCES & CREDITS :

   NOAA